createdAt,value
2022-08-06T00:00:02.323Z,81.71
2022-08-06T00:02:25.747Z,80.46
2022-08-06T00:05:00.457Z,79.91
2022-08-06T00:07:28.620Z,79.64
2022-08-06T00:10:00.859Z,80.67
2022-08-06T00:12:33.237Z,81.06
2022-08-06T00:15:12.385Z,80.43
2022-08-06T00:17:42.239Z,79.98
2022-08-06T00:20:10.619Z,80.88
2022-08-06T00:22:37.719Z,81.13
2022-08-06T00:25:05.429Z,81.71
2022-08-06T00:27:38.874Z,81.89
2022-08-06T00:30:18.423Z,82.45
2022-08-06T00:32:51.843Z,82.08
2022-08-06T00:35:24.032Z,82.92
2022-08-06T00:37:57.947Z,83.17
2022-08-06T00:40:31.361Z,83.63
2022-08-06T00:43:06.249Z,83.72
2022-08-06T00:45:38.070Z,84.62
2022-08-06T00:48:37.005Z,85.03
2022-08-06T00:51:00.896Z,85.47
2022-08-06T00:53:33.847Z,85.87
2022-08-06T00:56:08.152Z,85.74
2022-08-06T00:58:39.973Z,85.48
2022-08-06T01:01:16.736Z,85.92
2022-08-06T01:03:51.138Z,86.16
2022-08-06T01:06:55.440Z,86.99
2022-08-06T01:09:08.756Z,86.64
2022-08-06T01:11:38.648Z,86.60
2022-08-06T01:14:09.770Z,86.55
2022-08-06T01:16:58.434Z,87.68
2022-08-06T01:22:01.499Z,89.38
2022-08-06T01:23:44.761Z,90.06
2022-08-06T01:26:34.926Z,90.86
2022-08-06T01:29:36.211Z,90.69
2022-08-06T01:32:07.295Z,91.21
2022-08-06T01:34:47.302Z,90.75
2022-08-06T01:37:39.747Z,90.63
2022-08-06T01:40:13.785Z,90.41
2022-08-06T01:42:44.139Z,90.75
2022-08-06T01:45:14.724Z,91.59
2022-08-06T01:47:54.578Z,92.72
2022-08-06T01:50:28.739Z,93.62
2022-08-06T01:53:00.400Z,94.60
2022-08-06T01:55:56.643Z,95.79
2022-08-06T01:58:27.676Z,96.53
2022-08-06T02:00:58.021Z,96.92
2022-08-06T02:03:50.177Z,97.30
2022-08-06T02:06:49.555Z,97.10
2022-08-06T02:09:23.798Z,97.67
2022-08-06T02:12:18.613Z,99.29
2022-08-06T02:15:05.664Z,100.00
2022-08-06T02:17:54.142Z,100.00
2022-08-06T02:20:36.576Z,100.00
2022-08-06T02:23:08.411Z,100.00
2022-08-06T02:25:41.213Z,100.00
2022-08-06T02:28:10.589Z,100.00
2022-08-06T02:30:42.578Z,100.00
2022-08-06T02:33:11.271Z,100.00
2022-08-06T02:35:51.852Z,100.00
2022-08-06T02:38:23.535Z,100.00
2022-08-06T02:41:01.577Z,100.00
2022-08-06T02:43:38.344Z,100.00
2022-08-06T02:46:20.307Z,100.00
2022-08-06T02:48:52.074Z,100.00
2022-08-06T02:51:43.901Z,100.00
2022-08-06T02:54:21.180Z,100.00
2022-08-06T02:56:55.877Z,100.00
2022-08-06T02:59:27.347Z,100.00
2022-08-06T03:02:12.120Z,100.00
2022-08-06T03:04:56.474Z,100.00
2022-08-06T03:07:30.604Z,100.00
2022-08-06T03:10:00.020Z,100.00
2022-08-06T03:12:29.914Z,100.00
2022-08-06T03:15:07.270Z,100.00
2022-08-06T03:17:41.524Z,100.00
2022-08-06T03:20:17.518Z,100.00
2022-08-06T03:22:48.981Z,100.00
2022-08-06T03:25:17.489Z,100.00
2022-08-06T03:27:47.232Z,100.00
2022-08-06T03:30:33.041Z,100.00
2022-08-06T03:33:07.866Z,100.00
2022-08-06T03:35:54.887Z,100.00
2022-08-06T03:38:29.308Z,100.00
2022-08-06T03:40:58.615Z,100.00
2022-08-06T03:43:27.556Z,100.00
2022-08-06T03:46:01.911Z,100.00
2022-08-06T03:48:38.476Z,100.00
2022-08-06T03:51:17.445Z,100.00
2022-08-06T03:53:59.392Z,100.00
2022-08-06T03:56:30.319Z,100.00
2022-08-06T03:59:04.402Z,100.00
2022-08-06T04:01:43.418Z,100.00
2022-08-06T04:04:27.047Z,100.00
2022-08-06T04:07:00.551Z,100.00
2022-08-06T04:09:33.445Z,100.00
2022-08-06T04:12:42.712Z,100.00
2022-08-06T04:15:08.415Z,100.00
2022-08-06T04:17:40.714Z,100.00
2022-08-06T04:20:12.294Z,100.00
2022-08-06T04:23:06.208Z,100.00
2022-08-06T04:25:37.241Z,100.00
2022-08-06T04:28:06.825Z,100.00
2022-08-06T04:30:35.578Z,100.00
2022-08-06T04:33:09.006Z,100.00
2022-08-06T04:36:04.545Z,100.00
2022-08-06T04:38:31.265Z,100.00
2022-08-06T04:41:03.452Z,100.00
2022-08-06T04:43:38.757Z,100.00
2022-08-06T04:46:20.867Z,100.00
2022-08-06T04:48:52.288Z,100.00
2022-08-06T04:52:35.207Z,100.00
2022-08-06T04:54:12.159Z,100.00
2022-08-06T04:56:42.382Z,100.00
2022-08-06T04:59:18.068Z,100.00
2022-08-06T05:01:57.446Z,100.00
2022-08-06T05:04:32.626Z,100.00
2022-08-06T05:07:52.582Z,100.00
2022-08-06T05:10:17.112Z,100.00
2022-08-06T05:12:47.526Z,100.00
2022-08-06T05:15:41.630Z,100.00
2022-08-06T05:19:15.974Z,100.00
2022-08-06T05:21:05.761Z,100.00
2022-08-06T05:23:46.624Z,100.00
2022-08-06T05:26:25.002Z,100.00
2022-08-06T05:28:55.930Z,100.00
2022-08-06T05:31:38.995Z,100.00
2022-08-06T05:34:12.128Z,100.00
2022-08-06T05:36:39.407Z,100.00
2022-08-06T05:39:09.277Z,100.00
2022-08-06T05:41:59.831Z,100.00
2022-08-06T05:44:29.817Z,100.00
2022-08-06T05:47:05.738Z,100.00
2022-08-06T05:49:58.807Z,100.00
2022-08-06T05:53:07.494Z,100.00
2022-08-06T05:56:07.230Z,100.00
2022-08-06T05:58:54.494Z,100.00
2022-08-06T06:01:24.771Z,100.00
2022-08-06T06:03:56.082Z,100.00
2022-08-06T06:06:23.955Z,100.00
2022-08-06T06:08:57.676Z,100.00
2022-08-06T06:11:46.960Z,100.00
2022-08-06T06:14:38.646Z,100.00
2022-08-06T06:17:23.155Z,100.00
2022-08-06T06:20:16.460Z,100.00
2022-08-06T06:22:57.822Z,100.00
2022-08-06T06:25:43.528Z,100.00
2022-08-06T06:28:38.455Z,100.00
2022-08-06T06:32:06.839Z,100.00
2022-08-06T06:34:26.824Z,100.00
2022-08-06T06:37:04.580Z,100.00
2022-08-06T06:40:17.950Z,100.00
2022-08-06T06:43:02.016Z,100.00
2022-08-06T06:46:17.441Z,100.00
2022-08-06T06:48:41.613Z,100.00
2022-08-06T06:51:40.753Z,100.00
2022-08-06T06:54:09.392Z,97.08
2022-08-06T06:56:47.780Z,97.55
2022-08-06T06:59:56.033Z,93.40
2022-08-06T07:02:20.940Z,91.18
2022-08-06T07:04:52.340Z,86.79
2022-08-06T07:07:23.405Z,84.41
2022-08-06T07:09:53.544Z,78.09
2022-08-06T07:12:33.942Z,76.23
2022-08-06T07:15:02.992Z,72.10
2022-08-06T07:17:45.087Z,66.66
2022-08-06T07:20:20.535Z,66.78
2022-08-06T07:24:08.241Z,65.13
2022-08-06T07:25:53.853Z,61.41
2022-08-06T07:28:27.788Z,64.32
2022-08-06T07:31:09.883Z,62.75
2022-08-06T07:33:59.966Z,60.65
2022-08-06T07:36:32.537Z,60.23
2022-08-06T07:39:08.534Z,60.26
2022-08-06T07:41:50.061Z,59.57
2022-08-06T07:44:29.402Z,58.48
2022-08-06T07:46:59.805Z,58.69
2022-08-06T07:50:00.293Z,57.56
2022-08-06T07:52:26.755Z,56.24
2022-08-06T07:54:57.643Z,58.23
2022-08-06T07:57:26.107Z,57.38
2022-08-06T08:00:00.115Z,56.23
2022-08-06T08:02:30.100Z,53.79
2022-08-06T08:05:16.813Z,53.72
2022-08-06T08:07:53.911Z,55.13
2022-08-06T08:10:28.922Z,53.81
2022-08-06T08:12:58.011Z,53.51
2022-08-06T08:15:32.282Z,50.88
2022-08-06T08:17:59.261Z,51.28
2022-08-06T08:20:34.071Z,49.97
2022-08-06T08:23:07.768Z,50.92
2022-08-06T08:25:40.085Z,48.98
2022-08-06T08:28:15.131Z,49.41
2022-08-06T08:30:47.906Z,48.87
2022-08-06T08:33:21.116Z,48.80
2022-08-06T08:35:50.054Z,48.10
2022-08-06T08:38:32.372Z,46.31
2022-08-06T08:41:09.718Z,47.43
2022-08-06T08:44:00.471Z,46.92
2022-08-06T08:46:38.006Z,45.62
2022-08-06T08:49:19.336Z,46.88
2022-08-06T08:51:47.905Z,45.53
2022-08-06T08:54:22.043Z,46.50
2022-08-06T08:57:10.346Z,44.85
2022-08-06T08:59:57.857Z,47.04
2022-08-06T09:02:26.141Z,45.54
2022-08-06T09:04:54.567Z,45.32
2022-08-06T09:07:35.617Z,42.87
2022-08-06T09:10:16.381Z,43.82
2022-08-06T09:12:45.203Z,43.37
2022-08-06T09:15:14.650Z,43.27
2022-08-06T09:18:25.055Z,43.27
2022-08-06T09:20:35.139Z,43.25
2022-08-06T09:23:02.481Z,42.88
2022-08-06T09:25:41.171Z,43.14
2022-08-06T09:28:31.294Z,42.37
2022-08-06T09:31:21.979Z,41.72
2022-08-06T09:34:30.314Z,41.60
2022-08-06T09:36:47.628Z,41.83
2022-08-06T09:39:22.923Z,42.34
2022-08-06T09:41:58.935Z,41.34
2022-08-06T09:44:37.578Z,40.58
2022-08-06T09:47:16.470Z,39.87
2022-08-06T09:50:00.563Z,40.06
2022-08-06T09:52:27.952Z,39.58
2022-08-06T09:54:55.060Z,38.48
2022-08-06T09:57:35.820Z,37.82
2022-08-06T10:00:33.444Z,38.91
2022-08-06T10:04:03.989Z,39.46
2022-08-06T10:06:06.805Z,40.06
2022-08-06T10:08:39.023Z,40.47
2022-08-06T10:11:07.285Z,39.99
2022-08-06T10:13:43.747Z,40.16
2022-08-06T10:16:17.986Z,40.03
2022-08-06T10:18:54.792Z,40.04
2022-08-06T10:21:33.316Z,39.82
2022-08-06T10:24:09.906Z,39.91
2022-08-06T10:26:36.873Z,38.80
2022-08-06T10:29:06.819Z,38.23
2022-08-06T10:31:35.471Z,38.20
2022-08-06T10:34:17.036Z,37.28
2022-08-06T10:36:52.977Z,37.25
2022-08-06T10:40:07.937Z,36.65
2022-08-06T10:42:21.779Z,36.57
2022-08-06T10:44:51.673Z,36.73
2022-08-06T10:48:58.774Z,36.87
2022-08-06T10:50:26.068Z,36.56
2022-08-06T10:52:59.476Z,37.13
2022-08-06T10:55:37.569Z,36.80
2022-08-06T10:58:13.131Z,37.61
2022-08-06T11:00:44.833Z,38.01
2022-08-06T11:04:14.259Z,36.52
2022-08-06T11:08:10.209Z,35.88
2022-08-06T11:10:27.199Z,36.27
2022-08-06T11:13:12.337Z,36.24
2022-08-06T11:15:42.851Z,36.57
2022-08-06T11:18:16.184Z,35.71
2022-08-06T11:20:53.713Z,35.43
2022-08-06T11:23:52.229Z,34.84
2022-08-06T11:26:07.557Z,35.33
2022-08-06T11:28:34.402Z,36.34
2022-08-06T11:31:04.199Z,36.23
2022-08-06T11:33:34.035Z,33.85
2022-08-06T11:36:03.663Z,33.67
2022-08-06T11:38:51.115Z,34.27
2022-08-06T11:41:57.530Z,33.37
2022-08-06T11:44:31.112Z,33.35
2022-08-06T11:47:22.963Z,32.96
2022-08-06T11:50:02.117Z,32.59
2022-08-06T11:52:34.243Z,32.70
2022-08-06T11:55:08.419Z,33.28
2022-08-06T11:57:41.998Z,32.46
2022-08-06T12:00:20.010Z,32.51
2022-08-06T12:02:55.844Z,32.51
2022-08-06T12:05:23.938Z,32.71
2022-08-06T12:08:38.860Z,32.97
2022-08-06T12:11:25.232Z,34.08
2022-08-06T12:13:57.840Z,33.46
2022-08-06T12:16:41.170Z,33.19
2022-08-06T12:19:19.960Z,33.46
2022-08-06T12:21:56.796Z,33.89
2022-08-06T12:24:45.506Z,33.91
2022-08-06T12:27:24.921Z,33.78
2022-08-06T12:29:59.881Z,33.55
2022-08-06T12:32:36.096Z,32.89
2022-08-06T12:35:50.373Z,31.32
2022-08-06T12:38:18.329Z,32.16
2022-08-06T12:41:10.836Z,32.28
2022-08-06T12:43:56.535Z,31.68
2022-08-06T12:46:29.612Z,31.00
2022-08-06T12:49:01.429Z,30.80
2022-08-06T12:51:30.564Z,30.85
2022-08-06T12:54:03.207Z,31.27
2022-08-06T12:56:36.276Z,31.13
2022-08-06T12:59:12.798Z,30.18
2022-08-06T13:02:07.645Z,30.94
2022-08-06T13:04:38.197Z,32.12
2022-08-06T13:07:09.090Z,31.47
2022-08-06T13:09:56.098Z,31.44
2022-08-06T13:12:29.156Z,30.84
2022-08-06T13:15:18.772Z,31.30
2022-08-06T13:18:41.623Z,31.02
2022-08-06T13:20:59.780Z,30.04
2022-08-06T13:23:55.047Z,30.77
2022-08-06T13:26:26.820Z,30.95
2022-08-06T13:30:34.536Z,30.90
2022-08-06T13:32:33.290Z,30.13
2022-08-06T13:35:03.656Z,30.20
2022-08-06T13:38:06.253Z,30.10
2022-08-06T13:40:41.883Z,30.03
2022-08-06T13:43:39.603Z,29.52
2022-08-06T13:46:11.605Z,30.57
2022-08-06T13:48:49.470Z,30.57
2022-08-06T13:51:22.837Z,30.52
2022-08-06T13:53:57.464Z,30.78
2022-08-06T13:56:28.696Z,30.94
2022-08-06T13:58:56.687Z,31.08
2022-08-06T14:01:23.552Z,31.29
2022-08-06T14:03:50.629Z,30.48
2022-08-06T14:06:20.116Z,30.48
2022-08-06T14:08:50.256Z,30.41
2022-08-06T14:11:17.211Z,30.40
2022-08-06T14:13:48.016Z,30.53
2022-08-06T14:16:15.122Z,30.40
2022-08-06T14:18:47.870Z,30.06
2022-08-06T14:21:27.897Z,29.76
2022-08-06T14:24:01.087Z,29.40
2022-08-06T14:26:28.655Z,29.54
2022-08-06T14:30:27.126Z,30.11
2022-08-06T14:31:53.707Z,30.59
2022-08-06T14:34:35.083Z,30.74
2022-08-06T14:37:14.484Z,30.87
2022-08-06T14:39:58.108Z,31.26
2022-08-06T14:42:47.329Z,31.24
2022-08-06T14:45:21.674Z,31.82
2022-08-06T14:47:59.020Z,31.04
2022-08-06T14:50:38.106Z,31.43
2022-08-06T14:53:16.213Z,31.27
2022-08-06T14:55:58.607Z,31.27
2022-08-06T14:58:30.871Z,30.68
2022-08-06T15:00:58.120Z,30.68
2022-08-06T15:03:27.752Z,31.06
2022-08-06T15:06:04.943Z,30.80
2022-08-06T15:08:34.219Z,31.48
2022-08-06T15:11:06.259Z,31.20
2022-08-06T15:13:41.399Z,30.80
2022-08-06T15:16:11.164Z,29.90
2022-08-06T15:19:19.689Z,30.26
2022-08-06T15:21:50.876Z,30.44
2022-08-06T15:24:18.747Z,30.34
2022-08-06T15:26:49.064Z,30.48
2022-08-06T15:29:16.897Z,30.29
2022-08-06T15:31:45.452Z,30.98
2022-08-06T15:34:13.688Z,31.01
2022-08-06T15:36:59.411Z,31.71
2022-08-06T15:39:53.333Z,30.99
2022-08-06T15:42:20.286Z,31.44
2022-08-06T15:44:47.100Z,31.59
2022-08-06T15:47:15.217Z,31.41
2022-08-06T15:50:03.614Z,31.55
2022-08-06T15:52:32.863Z,31.49
2022-08-06T15:55:15.446Z,31.50
2022-08-06T15:58:04.347Z,31.31
2022-08-06T16:00:36.667Z,31.88
2022-08-06T16:03:08.701Z,32.27
2022-08-06T16:06:12.197Z,31.90
2022-08-06T16:08:35.311Z,31.93
2022-08-06T16:11:12.391Z,31.55
2022-08-06T16:13:41.157Z,31.32
2022-08-06T16:16:20.994Z,28.02
2022-08-06T16:18:51.713Z,26.08
2022-08-06T16:21:19.640Z,24.82
2022-08-06T16:23:55.265Z,23.13
2022-08-06T16:26:29.765Z,22.51
2022-08-06T16:29:40.197Z,22.23
2022-08-06T16:32:07.912Z,21.71
2022-08-06T16:34:36.473Z,21.69
2022-08-06T16:37:28.323Z,20.97
2022-08-06T16:40:00.092Z,21.73
2022-08-06T16:42:28.528Z,21.24
2022-08-06T16:45:02.411Z,20.81
2022-08-06T16:48:20.199Z,20.66
2022-08-06T16:50:26.213Z,20.41
2022-08-06T16:54:07.707Z,20.17
2022-08-06T16:56:13.886Z,20.13
2022-08-06T16:58:43.598Z,20.51
2022-08-06T17:02:21.043Z,20.13
2022-08-06T17:04:21.648Z,19.90
2022-08-06T17:06:53.774Z,20.33
2022-08-06T17:09:21.038Z,20.45
2022-08-06T17:11:58.699Z,19.76
2022-08-06T17:14:31.962Z,19.84
2022-08-06T17:17:02.112Z,20.13
2022-08-06T17:19:33.966Z,19.60
2022-08-06T17:22:06.706Z,19.66
2022-08-06T17:24:38.176Z,19.71
2022-08-06T17:27:15.249Z,20.09
2022-08-06T17:29:49.343Z,19.43
2022-08-06T17:32:27.728Z,19.84
2022-08-06T17:35:09.003Z,19.90
2022-08-06T17:37:44.255Z,20.43
2022-08-06T17:40:19.877Z,20.27
2022-08-06T17:43:54.411Z,20.40
2022-08-06T17:46:25.722Z,20.87
2022-08-06T17:48:54.017Z,22.21
2022-08-06T17:51:22.395Z,23.89
2022-08-06T17:53:54.799Z,25.15
2022-08-06T17:56:30.507Z,26.27
2022-08-06T17:59:16.491Z,27.37
2022-08-06T18:01:46.501Z,27.61
2022-08-06T18:04:22.551Z,28.49
2022-08-06T18:06:58.279Z,28.89
2022-08-06T18:10:11.239Z,29.31
2022-08-06T18:12:13.171Z,29.65
2022-08-06T18:14:41.007Z,29.77
2022-08-06T18:17:16.122Z,29.84
2022-08-06T18:19:44.621Z,30.37
2022-08-06T18:22:23.056Z,30.76
2022-08-06T18:24:53.986Z,30.76
2022-08-06T18:27:54.505Z,30.95
2022-08-06T18:30:30.170Z,30.94
2022-08-06T18:33:03.944Z,31.47
2022-08-06T18:35:54.570Z,31.17
2022-08-06T18:38:21.140Z,31.69
2022-08-06T18:41:00.908Z,31.88
2022-08-06T18:43:53.710Z,31.85
2022-08-06T18:47:01.010Z,31.77
2022-08-06T18:49:06.490Z,32.07
2022-08-06T18:51:36.909Z,32.15
2022-08-06T18:54:05.639Z,32.49
2022-08-06T18:56:33.123Z,32.17
2022-08-06T18:59:00.822Z,32.17
2022-08-06T19:01:47.622Z,32.75
2022-08-06T19:04:20.225Z,32.57
2022-08-06T19:06:55.794Z,32.94
2022-08-06T19:09:24.019Z,33.08
2022-08-06T19:11:52.389Z,33.58
2022-08-06T19:14:20.155Z,34.35
2022-08-06T19:16:48.602Z,34.50
2022-08-06T19:19:46.323Z,36.00
2022-08-06T19:22:09.709Z,38.09
2022-08-06T19:24:39.620Z,38.18
2022-08-06T19:27:08.069Z,37.76
2022-08-06T19:30:04.031Z,37.46
2022-08-06T19:32:39.380Z,38.48
2022-08-06T19:35:07.671Z,38.92
2022-08-06T19:37:59.837Z,40.02
2022-08-06T19:40:46.084Z,39.99
2022-08-06T19:44:29.010Z,39.78
2022-08-06T19:46:29.683Z,40.99
2022-08-06T19:48:48.357Z,41.77
2022-08-06T19:52:02.436Z,41.87
2022-08-06T19:54:03.618Z,40.86
2022-08-06T19:56:33.125Z,40.68
2022-08-06T20:00:56.216Z,40.61
2022-08-06T20:01:49.889Z,41.05
2022-08-06T20:04:35.295Z,41.05
2022-08-06T20:07:11.740Z,40.65
2022-08-06T20:09:59.838Z,40.74
2022-08-06T20:12:32.221Z,41.04
2022-08-06T20:14:59.292Z,41.13
2022-08-06T20:17:29.740Z,40.89
2022-08-06T20:20:15.586Z,40.82
2022-08-06T20:22:44.467Z,41.19
2022-08-06T20:25:18.735Z,41.27
2022-08-06T20:29:09.235Z,41.07
2022-08-06T20:30:34.859Z,41.31
2022-08-06T20:33:02.073Z,41.37
2022-08-06T20:35:32.637Z,41.26
2022-08-06T20:38:07.215Z,41.79
2022-08-06T20:41:26.430Z,41.60
2022-08-06T20:44:06.242Z,41.58
2022-08-06T20:46:09.989Z,42.10
2022-08-06T20:48:39.150Z,42.15
2022-08-06T20:51:06.063Z,42.17
2022-08-06T20:53:37.298Z,43.03
2022-08-06T20:56:04.559Z,42.90
2022-08-06T20:58:33.169Z,43.03
2022-08-06T21:01:00.659Z,43.08
2022-08-06T21:05:10.357Z,43.06
2022-08-06T21:06:14.491Z,43.24
2022-08-06T21:08:50.654Z,43.16
2022-08-06T21:11:20.430Z,43.77
2022-08-06T21:13:59.883Z,43.92
2022-08-06T21:16:34.948Z,43.93
2022-08-06T21:19:07.083Z,44.01
2022-08-06T21:21:35.240Z,44.39
2022-08-06T21:24:04.765Z,44.52
2022-08-06T21:26:35.367Z,44.57
2022-08-06T21:29:41.665Z,44.57
2022-08-06T21:31:57.157Z,44.99
2022-08-06T21:34:26.002Z,45.44
2022-08-06T21:36:55.985Z,46.05
2022-08-06T21:39:24.570Z,46.07
2022-08-06T21:42:11.822Z,46.45
2022-08-06T21:44:38.889Z,46.81
2022-08-06T21:47:07.408Z,46.42
2022-08-06T21:49:59.094Z,47.14
2022-08-06T21:52:28.437Z,47.36
2022-08-06T21:56:35.121Z,47.50
2022-08-06T21:57:53.176Z,47.83
2022-08-06T22:00:34.557Z,47.74
2022-08-06T22:03:06.734Z,47.95
2022-08-06T22:06:20.226Z,48.71
2022-08-06T22:08:21.284Z,49.25
2022-08-06T22:10:52.679Z,49.49
2022-08-06T22:13:24.212Z,50.48
2022-08-06T22:15:55.733Z,50.94
2022-08-06T22:18:28.854Z,51.26
2022-08-06T22:20:57.510Z,53.02
2022-08-06T22:23:28.844Z,53.48
2022-08-06T22:25:59.666Z,53.07
2022-08-06T22:28:37.812Z,53.71
2022-08-06T22:31:08.605Z,54.06
2022-08-06T22:33:58.621Z,53.68
2022-08-06T22:36:34.593Z,53.65
2022-08-06T22:39:06.019Z,54.08
2022-08-06T22:41:42.778Z,54.48
2022-08-06T22:44:30.972Z,54.29
2022-08-06T22:47:04.809Z,53.01
2022-08-06T22:49:36.795Z,52.66
2022-08-06T22:52:18.931Z,51.92
2022-08-06T22:54:58.980Z,50.73
2022-08-06T22:57:27.453Z,50.47
2022-08-06T23:00:18.373Z,49.75
2022-08-06T23:02:45.869Z,49.73
2022-08-06T23:05:18.077Z,49.48
2022-08-06T23:07:53.652Z,49.26
2022-08-06T23:10:20.986Z,48.88
2022-08-06T23:12:50.077Z,48.95
2022-08-06T23:15:29.969Z,48.55
2022-08-06T23:18:08.334Z,48.47
2022-08-06T23:20:42.482Z,48.79
2022-08-06T23:23:12.033Z,48.82
2022-08-06T23:26:02.127Z,48.79
2022-08-06T23:28:28.255Z,48.92
2022-08-06T23:30:56.185Z,48.57
2022-08-06T23:33:22.873Z,48.26
2022-08-06T23:35:50.829Z,48.74
2022-08-06T23:38:31.854Z,48.85
2022-08-06T23:41:02.171Z,48.83
2022-08-06T23:43:34.996Z,48.71
2022-08-06T23:46:03.739Z,48.85
2022-08-06T23:48:31.758Z,48.86
2022-08-06T23:51:04.881Z,48.49
2022-08-06T23:54:08.965Z,49.00
2022-08-06T23:56:19.422Z,48.83
2022-08-06T23:58:49.245Z,49.02
